Nanty Glo, Pennsylvania
Current Conditions -  °F | °C
As of 10:54 AM on Wednesday 28 Jan 2015 (Local Time) from KJST Reporting Station
Clear Clear  
Wind Chill: -5°   Ceiling: Unl
Heat Index: 11°   Visibility: 10mi
Dew Point:   Wind: 14mph
Humidity: 73%   Direction: 270°W
Pressure: 30.2"   Gusts: NA
Location:  40.47°N, 78.83°W
Report Text: KJST 281554Z AUTO 27012KT 10SM CLR M12/M16 A3020 RMK AO2 SLP274 T11171156
Loading
Personal Weather Stations






























Interactive Weather Map New forecast layout! Learn more

10-Day Weather Forecast

Advertisements
Track Severe Weather on mobile